sensor_id;sensor_type;location;lat;lon;timestamp;P1;durP1;ratioP1;P2;durP2;ratioP2
71174;SDS011;58876;51.994;4.472;2023-05-23T00:01:02;19.69;;;19.69;;
71174;SDS011;58876;51.994;4.472;2023-05-23T00:03:31;14.71;;;14.71;;
71174;SDS011;58876;51.994;4.472;2023-05-23T00:05:57;14.03;;;14.03;;
71174;SDS011;58876;51.994;4.472;2023-05-23T00:08:23;14.42;;;14.42;;
71174;SDS011;58876;51.994;4.472;2023-05-23T00:10:49;13.48;;;13.47;;
71174;SDS011;58876;51.994;4.472;2023-05-23T00:13:15;14.26;;;14.26;;
71174;SDS011;58876;51.994;4.472;2023-05-23T00:15:41;14.38;;;14.38;;
71174;SDS011;58876;51.994;4.472;2023-05-23T00:18:07;14.33;;;14.33;;
71174;SDS011;58876;51.994;4.472;2023-05-23T00:20:36;14.53;;;14.53;;
71174;SDS011;58876;51.994;4.472;2023-05-23T00:23:05;13.93;;;13.93;;
71174;SDS011;58876;51.994;4.472;2023-05-23T00:25:32;12.48;;;12.48;;
71174;SDS011;58876;51.994;4.472;2023-05-23T00:27:58;10.89;;;10.87;;
71174;SDS011;58876;51.994;4.472;2023-05-23T00:30:25;10.71;;;10.71;;
71174;SDS011;58876;51.994;4.472;2023-05-23T00:32:51;11.60;;;11.60;;
71174;SDS011;58876;51.994;4.472;2023-05-23T00:35:19;15.12;;;15.12;;
71174;SDS011;58876;51.994;4.472;2023-05-23T00:37:45;15.43;;;15.43;;
71174;SDS011;58876;51.994;4.472;2023-05-23T00:40:11;13.22;;;13.22;;
71174;SDS011;58876;51.994;4.472;2023-05-23T00:42:37;10.79;;;10.79;;
71174;SDS011;58876;51.994;4.472;2023-05-23T00:45:03;14.90;;;14.90;;
71174;SDS011;58876;51.994;4.472;2023-05-23T00:47:29;16.05;;;16.05;;
71174;SDS011;58876;51.994;4.472;2023-05-23T00:49:56;12.23;;;12.23;;
71174;SDS011;58876;51.994;4.472;2023-05-23T00:52:21;12.26;;;12.26;;
71174;SDS011;58876;51.994;4.472;2023-05-23T00:54:47;11.51;;;11.50;;
71174;SDS011;58876;51.994;4.472;2023-05-23T00:57:12;11.40;;;11.38;;
71174;SDS011;58876;51.994;4.472;2023-05-23T00:59:38;11.30;;;11.30;;
71174;SDS011;58876;51.994;4.472;2023-05-23T01:02:04;11.68;;;11.68;;
71174;SDS011;58876;51.994;4.472;2023-05-23T01:04:30;11.51;;;11.51;;
71174;SDS011;58876;51.994;4.472;2023-05-23T01:06:58;11.35;;;11.35;;
71174;SDS011;58876;51.994;4.472;2023-05-23T01:09:25;11.81;;;11.81;;
71174;SDS011;58876;51.994;4.472;2023-05-23T01:12:02;11.20;;;11.20;;
71174;SDS011;58876;51.994;4.472;2023-05-23T01:14:50;11.46;;;11.46;;
71174;SDS011;58876;51.994;4.472;2023-05-23T01:20:24;11.34;;;11.33;;
71174;SDS011;58876;51.994;4.472;2023-05-23T01:25:34;12.50;;;12.49;;
71174;SDS011;58876;51.994;4.472;2023-05-23T01:28:12;11.40;;;11.40;;
71174;SDS011;58876;51.994;4.472;2023-05-23T01:30:43;14.62;;;14.62;;
71174;SDS011;58876;51.994;4.472;2023-05-23T01:33:10;14.25;;;14.25;;
71174;SDS011;58876;51.994;4.472;2023-05-23T01:35:40;12.09;;;12.09;;
71174;SDS011;58876;51.994;4.472;2023-05-23T01:38:08;11.33;;;11.33;;
71174;SDS011;58876;51.994;4.472;2023-05-23T01:40:35;11.03;;;11.03;;
71174;SDS011;58876;51.994;4.472;2023-05-23T01:43:01;10.65;;;10.65;;
71174;SDS011;58876;51.994;4.472;2023-05-23T01:45:27;10.99;;;10.99;;
71174;SDS011;58876;51.994;4.472;2023-05-23T01:47:53;10.53;;;10.53;;
71174;SDS011;58876;51.994;4.472;2023-05-23T01:50:21;11.17;;;11.17;;
71174;SDS011;58876;51.994;4.472;2023-05-23T01:52:48;11.53;;;11.53;;
71174;SDS011;58876;51.994;4.472;2023-05-23T01:55:15;11.86;;;11.86;;
71174;SDS011;58876;51.994;4.472;2023-05-23T01:57:46;10.75;;;10.75;;
71174;SDS011;58876;51.994;4.472;2023-05-23T02:00:15;13.97;;;13.97;;
71174;SDS011;58876;51.994;4.472;2023-05-23T02:02:41;15.92;;;15.92;;
71174;SDS011;58876;51.994;4.472;2023-05-23T02:05:08;12.70;;;12.70;;
71174;SDS011;58876;51.994;4.472;2023-05-23T02:07:35;13.16;;;13.16;;
71174;SDS011;58876;51.994;4.472;2023-05-23T02:10:01;19.03;;;19.03;;
71174;SDS011;58876;51.994;4.472;2023-05-23T02:12:28;18.00;;;18.00;;
71174;SDS011;58876;51.994;4.472;2023-05-23T02:14:54;22.84;;;22.84;;
71174;SDS011;58876;51.994;4.472;2023-05-23T02:17:19;19.47;;;19.47;;
71174;SDS011;58876;51.994;4.472;2023-05-23T02:19:48;16.76;;;16.76;;
71174;SDS011;58876;51.994;4.472;2023-05-23T02:22:13;19.42;;;19.42;;
71174;SDS011;58876;51.994;4.472;2023-05-23T02:24:39;24.53;;;24.53;;
71174;SDS011;58876;51.994;4.472;2023-05-23T02:27:05;31.11;;;31.11;;
71174;SDS011;58876;51.994;4.472;2023-05-23T02:29:31;31.67;;;31.67;;
71174;SDS011;58876;51.994;4.472;2023-05-23T02:31:57;35.05;;;35.05;;
71174;SDS011;58876;51.994;4.472;2023-05-23T02:34:22;33.34;;;33.34;;
71174;SDS011;58876;51.994;4.472;2023-05-23T02:36:47;32.68;;;32.68;;
71174;SDS011;58876;51.994;4.472;2023-05-23T02:39:13;39.71;;;39.71;;
71174;SDS011;58876;51.994;4.472;2023-05-23T02:41:38;49.09;;;49.09;;
71174;SDS011;58876;51.994;4.472;2023-05-23T02:44:04;66.26;;;66.26;;
71174;SDS011;58876;51.994;4.472;2023-05-23T02:46:29;51.60;;;51.60;;
71174;SDS011;58876;51.994;4.472;2023-05-23T02:48:55;42.19;;;42.19;;
71174;SDS011;58876;51.994;4.472;2023-05-23T02:51:20;42.36;;;42.36;;
71174;SDS011;58876;51.994;4.472;2023-05-23T02:53:46;42.34;;;42.34;;
71174;SDS011;58876;51.994;4.472;2023-05-23T02:56:11;55.86;;;55.86;;
71174;SDS011;58876;51.994;4.472;2023-05-23T02:58:37;63.31;;;63.31;;
71174;SDS011;58876;51.994;4.472;2023-05-23T03:01:04;68.37;;;68.37;;
71174;SDS011;58876;51.994;4.472;2023-05-23T03:03:29;68.87;;;68.87;;
71174;SDS011;58876;51.994;4.472;2023-05-23T03:05:56;60.89;;;60.89;;
71174;SDS011;58876;51.994;4.472;2023-05-23T03:08:22;48.60;;;48.60;;
71174;SDS011;58876;51.994;4.472;2023-05-23T03:10:48;48.07;;;48.07;;
71174;SDS011;58876;51.994;4.472;2023-05-23T03:13:13;52.13;;;52.13;;
71174;SDS011;58876;51.994;4.472;2023-05-23T03:15:40;54.25;;;54.25;;
71174;SDS011;58876;51.994;4.472;2023-05-23T03:18:05;53.80;;;53.80;;
71174;SDS011;58876;51.994;4.472;2023-05-23T03:20:31;64.36;;;64.36;;
71174;SDS011;58876;51.994;4.472;2023-05-23T03:22:57;78.80;;;78.80;;
71174;SDS011;58876;51.994;4.472;2023-05-23T03:25:23;85.27;;;85.27;;
71174;SDS011;58876;51.994;4.472;2023-05-23T03:27:48;68.13;;;68.13;;
71174;SDS011;58876;51.994;4.472;2023-05-23T03:30:14;58.20;;;58.20;;
71174;SDS011;58876;51.994;4.472;2023-05-23T03:32:39;57.61;;;57.61;;
71174;SDS011;58876;51.994;4.472;2023-05-23T03:35:05;67.04;;;67.04;;
71174;SDS011;58876;51.994;4.472;2023-05-23T03:37:31;87.26;;;87.26;;
71174;SDS011;58876;51.994;4.472;2023-05-23T03:39:56;89.87;;;89.87;;
71174;SDS011;58876;51.994;4.472;2023-05-23T03:42:22;120.24;;;120.24;;
71174;SDS011;58876;51.994;4.472;2023-05-23T03:44:47;122.25;;;122.25;;
71174;SDS011;58876;51.994;4.472;2023-05-23T03:47:13;118.66;;;118.66;;
71174;SDS011;58876;51.994;4.472;2023-05-23T03:49:38;109.86;;;109.86;;
71174;SDS011;58876;51.994;4.472;2023-05-23T03:52:03;108.94;;;108.94;;
71174;SDS011;58876;51.994;4.472;2023-05-23T03:54:29;183.41;;;183.41;;
71174;SDS011;58876;51.994;4.472;2023-05-23T03:56:55;157.28;;;157.28;;
71174;SDS011;58876;51.994;4.472;2023-05-23T03:59:20;146.50;;;146.50;;
71174;SDS011;58876;51.994;4.472;2023-05-23T04:01:46;193.27;;;193.27;;
71174;SDS011;58876;51.994;4.472;2023-05-23T04:04:11;227.63;;;227.63;;
71174;SDS011;58876;51.994;4.472;2023-05-23T04:06:37;219.78;;;219.78;;
71174;SDS011;58876;51.994;4.472;2023-05-23T04:09:03;182.01;;;182.01;;
71174;SDS011;58876;51.994;4.472;2023-05-23T04:11:30;121.92;;;121.92;;
71174;SDS011;58876;51.994;4.472;2023-05-23T04:13:55;114.61;;;114.61;;
71174;SDS011;58876;51.994;4.472;2023-05-23T04:16:21;123.10;;;123.10;;
71174;SDS011;58876;51.994;4.472;2023-05-23T04:18:48;118.21;;;118.21;;
71174;SDS011;58876;51.994;4.472;2023-05-23T04:21:14;151.67;;;151.67;;
71174;SDS011;58876;51.994;4.472;2023-05-23T04:23:39;141.59;;;141.59;;
71174;SDS011;58876;51.994;4.472;2023-05-23T04:26:05;210.24;;;210.24;;
71174;SDS011;58876;51.994;4.472;2023-05-23T04:28:30;183.09;;;183.09;;
71174;SDS011;58876;51.994;4.472;2023-05-23T04:30:56;134.23;;;134.23;;
71174;SDS011;58876;51.994;4.472;2023-05-23T04:33:22;97.04;;;97.04;;
71174;SDS011;58876;51.994;4.472;2023-05-23T04:35:48;84.12;;;84.12;;
71174;SDS011;58876;51.994;4.472;2023-05-23T04:38:14;80.55;;;80.55;;
71174;SDS011;58876;51.994;4.472;2023-05-23T04:40:39;71.27;;;71.27;;
71174;SDS011;58876;51.994;4.472;2023-05-23T04:43:05;39.18;;;39.18;;
71174;SDS011;58876;51.994;4.472;2023-05-23T04:45:33;37.13;;;37.13;;
71174;SDS011;58876;51.994;4.472;2023-05-23T04:47:58;35.78;;;35.78;;
71174;SDS011;58876;51.994;4.472;2023-05-23T04:50:24;34.11;;;34.11;;
71174;SDS011;58876;51.994;4.472;2023-05-23T04:52:49;33.10;;;33.10;;
71174;SDS011;58876;51.994;4.472;2023-05-23T04:55:15;33.15;;;33.15;;
71174;SDS011;58876;51.994;4.472;2023-05-23T04:57:40;27.97;;;27.97;;
71174;SDS011;58876;51.994;4.472;2023-05-23T05:00:06;27.40;;;27.40;;
71174;SDS011;58876;51.994;4.472;2023-05-23T05:02:35;55.11;;;55.11;;
71174;SDS011;58876;51.994;4.472;2023-05-23T05:05:02;43.90;;;43.90;;
71174;SDS011;58876;51.994;4.472;2023-05-23T05:07:28;55.05;;;55.05;;
71174;SDS011;58876;51.994;4.472;2023-05-23T05:09:54;55.51;;;55.51;;
71174;SDS011;58876;51.994;4.472;2023-05-23T05:12:20;48.74;;;48.74;;
71174;SDS011;58876;51.994;4.472;2023-05-23T05:14:45;39.93;;;39.93;;
71174;SDS011;58876;51.994;4.472;2023-05-23T05:17:10;54.13;;;54.13;;
71174;SDS011;58876;51.994;4.472;2023-05-23T05:19:36;69.65;;;69.65;;
71174;SDS011;58876;51.994;4.472;2023-05-23T05:22:02;61.61;;;61.61;;
71174;SDS011;58876;51.994;4.472;2023-05-23T05:24:28;84.53;;;84.53;;
71174;SDS011;58876;51.994;4.472;2023-05-23T05:26:53;51.97;;;51.97;;
71174;SDS011;58876;51.994;4.472;2023-05-23T05:29:19;44.73;;;44.73;;
71174;SDS011;58876;51.994;4.472;2023-05-23T05:31:45;29.17;;;29.17;;
71174;SDS011;58876;51.994;4.472;2023-05-23T05:34:11;28.24;;;28.24;;
71174;SDS011;58876;51.994;4.472;2023-05-23T05:36:37;26.27;;;26.27;;
71174;SDS011;58876;51.994;4.472;2023-05-23T05:39:09;25.20;;;25.20;;
71174;SDS011;58876;51.994;4.472;2023-05-23T05:41:36;32.11;;;32.11;;
71174;SDS011;58876;51.994;4.472;2023-05-23T05:44:01;36.52;;;36.52;;
71174;SDS011;58876;51.994;4.472;2023-05-23T05:46:26;20.82;;;20.82;;
71174;SDS011;58876;51.994;4.472;2023-05-23T05:48:52;23.45;;;23.45;;
71174;SDS011;58876;51.994;4.472;2023-05-23T05:51:17;20.42;;;20.42;;
71174;SDS011;58876;51.994;4.472;2023-05-23T05:53:43;17.07;;;17.07;;
71174;SDS011;58876;51.994;4.472;2023-05-23T05:56:08;49.71;;;49.71;;
71174;SDS011;58876;51.994;4.472;2023-05-23T05:58:34;23.57;;;23.57;;
71174;SDS011;58876;51.994;4.472;2023-05-23T06:00:59;43.93;;;43.93;;
71174;SDS011;58876;51.994;4.472;2023-05-23T06:03:25;75.56;;;75.56;;
71174;SDS011;58876;51.994;4.472;2023-05-23T06:05:51;38.42;;;38.42;;
71174;SDS011;58876;51.994;4.472;2023-05-23T06:08:16;42.50;;;42.50;;
71174;SDS011;58876;51.994;4.472;2023-05-23T06:10:42;37.16;;;37.16;;
71174;SDS011;58876;51.994;4.472;2023-05-23T06:13:07;31.26;;;31.26;;
71174;SDS011;58876;51.994;4.472;2023-05-23T06:15:33;35.23;;;35.23;;
71174;SDS011;58876;51.994;4.472;2023-05-23T06:17:58;29.32;;;29.32;;
71174;SDS011;58876;51.994;4.472;2023-05-23T06:20:23;35.87;;;35.87;;
71174;SDS011;58876;51.994;4.472;2023-05-23T06:22:49;58.66;;;58.66;;
71174;SDS011;58876;51.994;4.472;2023-05-23T06:25:14;35.64;;;35.64;;
71174;SDS011;58876;51.994;4.472;2023-05-23T06:27:40;31.31;;;31.31;;
71174;SDS011;58876;51.994;4.472;2023-05-23T06:30:05;35.35;;;35.35;;
71174;SDS011;58876;51.994;4.472;2023-05-23T06:32:31;30.29;;;30.29;;
71174;SDS011;58876;51.994;4.472;2023-05-23T06:34:57;46.58;;;46.58;;
71174;SDS011;58876;51.994;4.472;2023-05-23T06:37:22;42.88;;;42.88;;
71174;SDS011;58876;51.994;4.472;2023-05-23T06:39:48;51.55;;;51.55;;
71174;SDS011;58876;51.994;4.472;2023-05-23T06:42:13;58.28;;;58.28;;
71174;SDS011;58876;51.994;4.472;2023-05-23T06:44:40;59.03;;;59.03;;
71174;SDS011;58876;51.994;4.472;2023-05-23T06:47:05;36.62;;;36.62;;
71174;SDS011;58876;51.994;4.472;2023-05-23T06:49:30;20.40;;;20.40;;
71174;SDS011;58876;51.994;4.472;2023-05-23T06:51:56;17.24;;;17.24;;
71174;SDS011;58876;51.994;4.472;2023-05-23T06:54:21;14.81;;;14.81;;
71174;SDS011;58876;51.994;4.472;2023-05-23T06:56:47;19.68;;;19.68;;
71174;SDS011;58876;51.994;4.472;2023-05-23T06:59:12;12.56;;;12.56;;
71174;SDS011;58876;51.994;4.472;2023-05-23T07:01:37;8.99;;;8.99;;
71174;SDS011;58876;51.994;4.472;2023-05-23T07:04:03;15.92;;;15.92;;
71174;SDS011;58876;51.994;4.472;2023-05-23T07:06:29;9.25;;;9.25;;
71174;SDS011;58876;51.994;4.472;2023-05-23T07:08:55;26.27;;;26.04;;
71174;SDS011;58876;51.994;4.472;2023-05-23T07:11:20;25.38;;;25.29;;
71174;SDS011;58876;51.994;4.472;2023-05-23T07:13:46;5.18;;;5.02;;
71174;SDS011;58876;51.994;4.472;2023-05-23T07:16:12;26.63;;;26.63;;
71174;SDS011;58876;51.994;4.472;2023-05-23T07:18:37;9.37;;;9.37;;
71174;SDS011;58876;51.994;4.472;2023-05-23T07:21:03;5.73;;;5.67;;
71174;SDS011;58876;51.994;4.472;2023-05-23T07:23:31;7.23;;;5.97;;
71174;SDS011;58876;51.994;4.472;2023-05-23T07:25:58;7.27;;;5.97;;
71174;SDS011;58876;51.994;4.472;2023-05-23T07:28:24;11.92;;;11.91;;
71174;SDS011;58876;51.994;4.472;2023-05-23T07:30:50;10.04;;;10.04;;
71174;SDS011;58876;51.994;4.472;2023-05-23T07:33:15;15.85;;;15.85;;
71174;SDS011;58876;51.994;4.472;2023-05-23T07:35:41;16.66;;;16.66;;
71174;SDS011;58876;51.994;4.472;2023-05-23T07:38:08;5.80;;;5.80;;
71174;SDS011;58876;51.994;4.472;2023-05-23T07:40:33;12.64;;;12.64;;
71174;SDS011;58876;51.994;4.472;2023-05-23T07:42:59;26.24;;;26.24;;
71174;SDS011;58876;51.994;4.472;2023-05-23T07:45:24;5.77;;;5.77;;
71174;SDS011;58876;51.994;4.472;2023-05-23T07:47:50;13.08;;;13.08;;
71174;SDS011;58876;51.994;4.472;2023-05-23T07:50:15;14.26;;;14.26;;
71174;SDS011;58876;51.994;4.472;2023-05-23T07:52:42;5.99;;;5.99;;
71174;SDS011;58876;51.994;4.472;2023-05-23T07:55:08;31.53;;;31.53;;
71174;SDS011;58876;51.994;4.472;2023-05-23T07:57:34;17.08;;;17.08;;
71174;SDS011;58876;51.994;4.472;2023-05-23T07:59:59;16.10;;;16.10;;
71174;SDS011;58876;51.994;4.472;2023-05-23T08:02:25;7.70;;;7.68;;
71174;SDS011;58876;51.994;4.472;2023-05-23T08:04:50;5.30;;;4.94;;
71174;SDS011;58876;51.994;4.472;2023-05-23T08:07:17;5.61;;;4.86;;
71174;SDS011;58876;51.994;4.472;2023-05-23T08:09:43;13.90;;;13.29;;
71174;SDS011;58876;51.994;4.472;2023-05-23T08:12:08;4.86;;;4.86;;
71174;SDS011;58876;51.994;4.472;2023-05-23T08:14:35;5.97;;;5.82;;
71174;SDS011;58876;51.994;4.472;2023-05-23T08:17:01;8.08;;;6.90;;
71174;SDS011;58876;51.994;4.472;2023-05-23T08:19:26;8.65;;;6.91;;
71174;SDS011;58876;51.994;4.472;2023-05-23T08:21:52;5.60;;;5.31;;
71174;SDS011;58876;51.994;4.472;2023-05-23T08:24:18;28.00;;;26.94;;
71174;SDS011;58876;51.994;4.472;2023-05-23T08:26:45;13.85;;;13.85;;
71174;SDS011;58876;51.994;4.472;2023-05-23T08:29:12;9.94;;;9.94;;
71174;SDS011;58876;51.994;4.472;2023-05-23T08:31:38;5.74;;;5.71;;
71174;SDS011;58876;51.994;4.472;2023-05-23T08:34:03;5.48;;;4.79;;
71174;SDS011;58876;51.994;4.472;2023-05-23T08:36:29;7.40;;;6.12;;
71174;SDS011;58876;51.994;4.472;2023-05-23T08:38:58;13.61;;;11.61;;
71174;SDS011;58876;51.994;4.472;2023-05-23T08:41:24;11.14;;;11.14;;
71174;SDS011;58876;51.994;4.472;2023-05-23T08:43:51;11.94;;;11.94;;
71174;SDS011;58876;51.994;4.472;2023-05-23T08:46:16;7.55;;;7.55;;
71174;SDS011;58876;51.994;4.472;2023-05-23T08:48:42;4.25;;;4.18;;
71174;SDS011;58876;51.994;4.472;2023-05-23T08:51:14;5.57;;;4.96;;
71174;SDS011;58876;51.994;4.472;2023-05-23T08:53:41;4.75;;;4.45;;
71174;SDS011;58876;51.994;4.472;2023-05-23T08:56:11;5.64;;;4.76;;
71174;SDS011;58876;51.994;4.472;2023-05-23T08:58:37;16.04;;;15.69;;
71174;SDS011;58876;51.994;4.472;2023-05-23T09:01:06;5.72;;;5.72;;
71174;SDS011;58876;51.994;4.472;2023-05-23T09:03:34;53.43;;;53.43;;
71174;SDS011;58876;51.994;4.472;2023-05-23T09:06:05;6.67;;;6.67;;
71174;SDS011;58876;51.994;4.472;2023-05-23T09:08:32;7.93;;;7.93;;
71174;SDS011;58876;51.994;4.472;2023-05-23T09:10:57;6.21;;;6.19;;
71174;SDS011;58876;51.994;4.472;2023-05-23T09:13:26;5.06;;;4.94;;
71174;SDS011;58876;51.994;4.472;2023-05-23T09:15:56;5.63;;;4.99;;
71174;SDS011;58876;51.994;4.472;2023-05-23T09:18:25;5.91;;;5.14;;
71174;SDS011;58876;51.994;4.472;2023-05-23T09:20:51;5.19;;;4.56;;
71174;SDS011;58876;51.994;4.472;2023-05-23T09:23:17;6.13;;;5.40;;
71174;SDS011;58876;51.994;4.472;2023-05-23T09:25:46;5.80;;;5.00;;
71174;SDS011;58876;51.994;4.472;2023-05-23T09:28:12;6.09;;;5.15;;
71174;SDS011;58876;51.994;4.472;2023-05-23T09:30:38;5.50;;;4.82;;
71174;SDS011;58876;51.994;4.472;2023-05-23T09:33:04;6.12;;;5.18;;
71174;SDS011;58876;51.994;4.472;2023-05-23T09:35:30;39.05;;;36.26;;
71174;SDS011;58876;51.994;4.472;2023-05-23T09:37:56;6.20;;;6.20;;
71174;SDS011;58876;51.994;4.472;2023-05-23T09:40:29;6.57;;;6.57;;
71174;SDS011;58876;51.994;4.472;2023-05-23T09:43:04;6.09;;;6.09;;
71174;SDS011;58876;51.994;4.472;2023-05-23T09:45:31;5.46;;;5.46;;
71174;SDS011;58876;51.994;4.472;2023-05-23T09:47:57;8.61;;;8.61;;
71174;SDS011;58876;51.994;4.472;2023-05-23T09:50:24;9.64;;;9.64;;
71174;SDS011;58876;51.994;4.472;2023-05-23T09:52:56;6.99;;;6.99;;
71174;SDS011;58876;51.994;4.472;2023-05-23T09:55:21;3.77;;;3.71;;
71174;SDS011;58876;51.994;4.472;2023-05-23T09:57:48;6.10;;;5.77;;
71174;SDS011;58876;51.994;4.472;2023-05-23T10:00:20;4.39;;;4.25;;
71174;SDS011;58876;51.994;4.472;2023-05-23T10:02:54;7.20;;;6.18;;
71174;SDS011;58876;51.994;4.472;2023-05-23T10:05:34;6.58;;;5.37;;
71174;SDS011;58876;51.994;4.472;2023-05-23T10:08:05;6.48;;;5.23;;
71174;SDS011;58876;51.994;4.472;2023-05-23T10:10:34;5.67;;;4.66;;
71174;SDS011;58876;51.994;4.472;2023-05-23T10:13:20;5.37;;;4.65;;
71174;SDS011;58876;51.994;4.472;2023-05-23T10:15:50;5.28;;;4.50;;
71174;SDS011;58876;51.994;4.472;2023-05-23T10:18:22;5.92;;;4.99;;
71174;SDS011;58876;51.994;4.472;2023-05-23T10:20:53;5.44;;;5.25;;
71174;SDS011;58876;51.994;4.472;2023-05-23T10:23:29;4.35;;;3.94;;
71174;SDS011;58876;51.994;4.472;2023-05-23T10:25:56;5.60;;;5.15;;
71174;SDS011;58876;51.994;4.472;2023-05-23T10:28:22;3.72;;;3.65;;
71174;SDS011;58876;51.994;4.472;2023-05-23T10:30:48;4.29;;;3.70;;
71174;SDS011;58876;51.994;4.472;2023-05-23T10:33:15;4.44;;;3.75;;
71174;SDS011;58876;51.994;4.472;2023-05-23T10:35:46;5.06;;;4.25;;
71174;SDS011;58876;51.994;4.472;2023-05-23T10:46:55;7.08;;;6.41;;
71174;SDS011;58876;51.994;4.472;2023-05-23T10:49:38;5.29;;;4.90;;
71174;SDS011;58876;51.994;4.472;2023-05-23T10:52:05;5.64;;;4.64;;
71174;SDS011;58876;51.994;4.472;2023-05-23T10:54:51;5.90;;;4.77;;
71174;SDS011;58876;51.994;4.472;2023-05-23T10:57:19;6.40;;;5.20;;
71174;SDS011;58876;51.994;4.472;2023-05-23T10:59:54;4.90;;;4.04;;
71174;SDS011;58876;51.994;4.472;2023-05-23T11:02:26;6.45;;;5.16;;
71174;SDS011;58876;51.994;4.472;2023-05-23T11:11:20;6.01;;;4.93;;
71174;SDS011;58876;51.994;4.472;2023-05-23T11:21:43;6.41;;;5.46;;
71174;SDS011;58876;51.994;4.472;2023-05-23T11:24:11;4.68;;;4.39;;
71174;SDS011;58876;51.994;4.472;2023-05-23T11:26:36;4.47;;;3.82;;
71174;SDS011;58876;51.994;4.472;2023-05-23T11:29:03;4.55;;;3.84;;
71174;SDS011;58876;51.994;4.472;2023-05-23T11:31:36;4.50;;;3.82;;
71174;SDS011;58876;51.994;4.472;2023-05-23T11:34:02;5.43;;;4.63;;
71174;SDS011;58876;51.994;4.472;2023-05-23T11:36:28;4.53;;;3.83;;
71174;SDS011;58876;51.994;4.472;2023-05-23T11:38:55;4.91;;;4.05;;
71174;SDS011;58876;51.994;4.472;2023-05-23T11:41:21;5.03;;;4.11;;
71174;SDS011;58876;51.994;4.472;2023-05-23T11:43:50;5.18;;;4.18;;
71174;SDS011;58876;51.994;4.472;2023-05-23T11:46:16;6.05;;;4.78;;
71174;SDS011;58876;51.994;4.472;2023-05-23T11:48:45;5.26;;;4.11;;
71174;SDS011;58876;51.994;4.472;2023-05-23T11:51:10;5.47;;;4.29;;
71174;SDS011;58876;51.994;4.472;2023-05-23T11:53:36;4.98;;;3.91;;
71174;SDS011;58876;51.994;4.472;2023-05-23T11:56:02;5.30;;;4.25;;
71174;SDS011;58876;51.994;4.472;2023-05-23T11:58:37;5.36;;;5.06;;
71174;SDS011;58876;51.994;4.472;2023-05-23T12:01:04;5.30;;;4.55;;
71174;SDS011;58876;51.994;4.472;2023-05-23T12:03:32;4.77;;;3.84;;
71174;SDS011;58876;51.994;4.472;2023-05-23T12:05:58;4.75;;;3.90;;
71174;SDS011;58876;51.994;4.472;2023-05-23T12:08:26;4.63;;;3.82;;
71174;SDS011;58876;51.994;4.472;2023-05-23T12:10:52;4.38;;;3.60;;
71174;SDS011;58876;51.994;4.472;2023-05-23T12:13:24;5.30;;;4.33;;
71174;SDS011;58876;51.994;4.472;2023-05-23T12:15:53;4.88;;;4.04;;
71174;SDS011;58876;51.994;4.472;2023-05-23T12:18:20;5.20;;;4.16;;
71174;SDS011;58876;51.994;4.472;2023-05-23T12:20:47;6.62;;;5.14;;
71174;SDS011;58876;51.994;4.472;2023-05-23T12:23:20;6.46;;;5.00;;
71174;SDS011;58876;51.994;4.472;2023-05-23T12:25:53;7.03;;;5.66;;
71174;SDS011;58876;51.994;4.472;2023-05-23T12:28:20;5.76;;;4.67;;
71174;SDS011;58876;51.994;4.472;2023-05-23T12:31:09;6.53;;;5.27;;
71174;SDS011;58876;51.994;4.472;2023-05-23T12:33:41;6.14;;;5.06;;
71174;SDS011;58876;51.994;4.472;2023-05-23T12:36:09;4.89;;;3.99;;
71174;SDS011;58876;51.994;4.472;2023-05-23T12:38:38;5.94;;;5.52;;
71174;SDS011;58876;51.994;4.472;2023-05-23T12:41:17;4.55;;;3.95;;
71174;SDS011;58876;51.994;4.472;2023-05-23T12:43:51;9.15;;;7.96;;
71174;SDS011;58876;51.994;4.472;2023-05-23T12:46:21;5.80;;;5.80;;
71174;SDS011;58876;51.994;4.472;2023-05-23T12:48:47;5.28;;;4.55;;
71174;SDS011;58876;51.994;4.472;2023-05-23T12:51:14;5.39;;;4.18;;
71174;SDS011;58876;51.994;4.472;2023-05-23T12:53:40;5.24;;;4.11;;
71174;SDS011;58876;51.994;4.472;2023-05-23T12:56:05;5.12;;;3.89;;
71174;SDS011;58876;51.994;4.472;2023-05-23T12:58:31;5.23;;;3.86;;
71174;SDS011;58876;51.994;4.472;2023-05-23T13:00:57;5.38;;;4.02;;
71174;SDS011;58876;51.994;4.472;2023-05-23T13:03:23;6.04;;;4.48;;
71174;SDS011;58876;51.994;4.472;2023-05-23T13:05:49;4.98;;;3.75;;
71174;SDS011;58876;51.994;4.472;2023-05-23T13:08:15;4.98;;;3.84;;
71174;SDS011;58876;51.994;4.472;2023-05-23T13:10:40;4.62;;;3.57;;
71174;SDS011;58876;51.994;4.472;2023-05-23T13:13:06;4.51;;;3.53;;
71174;SDS011;58876;51.994;4.472;2023-05-23T13:15:31;4.77;;;3.75;;
71174;SDS011;58876;51.994;4.472;2023-05-23T13:17:57;5.03;;;3.85;;
71174;SDS011;58876;51.994;4.472;2023-05-23T13:20:22;5.13;;;3.85;;
71174;SDS011;58876;51.994;4.472;2023-05-23T13:22:48;8.55;;;6.54;;
71174;SDS011;58876;51.994;4.472;2023-05-23T13:25:14;5.15;;;4.31;;
71174;SDS011;58876;51.994;4.472;2023-05-23T13:27:39;6.84;;;6.43;;
71174;SDS011;58876;51.994;4.472;2023-05-23T13:30:05;3.79;;;3.79;;
71174;SDS011;58876;51.994;4.472;2023-05-23T13:32:32;3.77;;;3.27;;
71174;SDS011;58876;51.994;4.472;2023-05-23T13:34:57;4.24;;;3.40;;
71174;SDS011;58876;51.994;4.472;2023-05-23T13:37:23;5.44;;;4.35;;
71174;SDS011;58876;51.994;4.472;2023-05-23T13:39:48;5.12;;;3.98;;
71174;SDS011;58876;51.994;4.472;2023-05-23T13:42:14;5.09;;;3.89;;
71174;SDS011;58876;51.994;4.472;2023-05-23T13:44:39;6.98;;;5.24;;
71174;SDS011;58876;51.994;4.472;2023-05-23T13:47:14;5.61;;;4.18;;
71174;SDS011;58876;51.994;4.472;2023-05-23T13:49:42;5.96;;;4.41;;
71174;SDS011;58876;51.994;4.472;2023-05-23T13:52:08;4.82;;;3.62;;
71174;SDS011;58876;51.994;4.472;2023-05-23T13:54:34;5.27;;;4.00;;
71174;SDS011;58876;51.994;4.472;2023-05-23T13:57:00;5.25;;;4.01;;
71174;SDS011;58876;51.994;4.472;2023-05-23T13:59:26;6.28;;;4.70;;
71174;SDS011;58876;51.994;4.472;2023-05-23T14:01:51;4.75;;;3.70;;
71174;SDS011;58876;51.994;4.472;2023-05-23T14:04:17;5.05;;;3.93;;
71174;SDS011;58876;51.994;4.472;2023-05-23T14:06:43;5.34;;;4.13;;
71174;SDS011;58876;51.994;4.472;2023-05-23T14:09:09;4.96;;;3.79;;
71174;SDS011;58876;51.994;4.472;2023-05-23T14:11:36;4.46;;;3.39;;
71174;SDS011;58876;51.994;4.472;2023-05-23T14:14:02;5.18;;;4.12;;
71174;SDS011;58876;51.994;4.472;2023-05-23T14:16:28;5.39;;;4.44;;
71174;SDS011;58876;51.994;4.472;2023-05-23T14:18:53;5.44;;;4.28;;
71174;SDS011;58876;51.994;4.472;2023-05-23T14:21:18;4.96;;;3.81;;
71174;SDS011;58876;51.994;4.472;2023-05-23T14:23:45;4.86;;;3.64;;
71174;SDS011;58876;51.994;4.472;2023-05-23T14:26:10;5.21;;;3.94;;
71174;SDS011;58876;51.994;4.472;2023-05-23T14:28:36;4.76;;;3.69;;
71174;SDS011;58876;51.994;4.472;2023-05-23T14:31:01;4.78;;;3.73;;
71174;SDS011;58876;51.994;4.472;2023-05-23T14:33:27;5.78;;;4.58;;
71174;SDS011;58876;51.994;4.472;2023-05-23T14:35:52;5.46;;;4.56;;
71174;SDS011;58876;51.994;4.472;2023-05-23T14:38:18;3.97;;;3.39;;
71174;SDS011;58876;51.994;4.472;2023-05-23T14:40:43;4.47;;;3.58;;
71174;SDS011;58876;51.994;4.472;2023-05-23T14:43:09;4.09;;;3.24;;
71174;SDS011;58876;51.994;4.472;2023-05-23T14:45:34;3.94;;;3.20;;
71174;SDS011;58876;51.994;4.472;2023-05-23T14:48:00;5.31;;;4.18;;
71174;SDS011;58876;51.994;4.472;2023-05-23T14:50:26;4.78;;;3.73;;
71174;SDS011;58876;51.994;4.472;2023-05-23T14:52:52;5.30;;;4.16;;
71174;SDS011;58876;51.994;4.472;2023-05-23T14:55:18;4.36;;;3.43;;
71174;SDS011;58876;51.994;4.472;2023-05-23T14:57:43;5.04;;;4.01;;